Terminal Aerodrome Forecast
Issued by NWS

Home | Current Version | Previous Version | Graphics & Text | Print | Product List | Glossary On
Versions: 1 2 3 4 5 6 7 8 9 10 11 12 13 14 15 16
432
FTUS43 KFGF 211134
TAFBJI
TAF
KBJI 211134Z 2112/2212 10005KT 4SM BR OVC002
     FM211300 13005KT 4SM -DZ BR OVC003
     FM220600 00000KT P6SM -FZDZ OVC003=

USA.gov is the U.S. government's official web portal to all federal, state and local government web resources and services.